aviador You're here:

MYNN Decoded Metar

NASSAU in BAHAMAS
Report Time2018-06-24 09:00:00
UTC Time2018-06-24 09:26:05
Flight Rules vfr VFR
Wind150° at 02 kt
W.Decomp.*RWY 14: 1.9 kt HW 0.6 kt RCW
RWY 09: 0.7 kt HW 1.9 kt RCW
W.Rank150° ranks 16
Current wind is below 150° avg. (6.6)
Visibility9999 m
Phenomena:N/A
Clouds:Few 018 Hf
Scattered 200 Hf
Expected CloudBase > 1,200 ft AGL from Temp-Dew spread
CeilingNone
Temp26°C (ISA +11)
Dew Point23°C (84% RH)
QNH1016 hPa
Density Alt1,552 ft
Elevation10 ft
Report Wrong Elevation
Raw Report
MYNN 240900Z 15002KT 9999 FEW018 SCT200 26/23 A3001=

Extra information for MYNN:More info

Metar Taf Metar & Taf Last 4 Metars F.Rules Stats Wind Profile Meteogram Temp Stats Airport Information Weather charts Add Link Nearby VenuesMetar ALERT Operation Metar Decoded Social comments